sensor_id;sensor_type;location;lat;lon;timestamp;temperature;humidity
34135;DHT22;20410;55.578;12.968;2023-07-09T00:01:37;17.70;1.00
34135;DHT22;20410;55.578;12.968;2023-07-09T00:04:02;17.80;1.00
34135;DHT22;20410;55.578;12.968;2023-07-09T00:06:28;17.70;1.00
34135;DHT22;20410;55.578;12.968;2023-07-09T00:08:54;17.80;1.00
34135;DHT22;20410;55.578;12.968;2023-07-09T00:11:19;17.80;1.00
34135;DHT22;20410;55.578;12.968;2023-07-09T00:13:45;17.80;1.00
34135;DHT22;20410;55.578;12.968;2023-07-09T00:16:16;17.60;1.00
34135;DHT22;20410;55.578;12.968;2023-07-09T00:18:43;17.60;1.00
34135;DHT22;20410;55.578;12.968;2023-07-09T00:21:08;17.50;1.00
34135;DHT22;20410;55.578;12.968;2023-07-09T00:23:34;17.50;1.00
34135;DHT22;20410;55.578;12.968;2023-07-09T00:25:59;17.40;1.00
34135;DHT22;20410;55.578;12.968;2023-07-09T00:28:28;17.30;1.00
34135;DHT22;20410;55.578;12.968;2023-07-09T00:30:53;17.20;1.00
34135;DHT22;20410;55.578;12.968;2023-07-09T00:33:19;17.10;1.00
34135;DHT22;20410;55.578;12.968;2023-07-09T00:35:46;17.00;1.00
34135;DHT22;20410;55.578;12.968;2023-07-09T00:38:15;17.00;1.00
34135;DHT22;20410;55.578;12.968;2023-07-09T00:40:48;16.90;1.00
34135;DHT22;20410;55.578;12.968;2023-07-09T00:43:16;16.90;1.00
34135;DHT22;20410;55.578;12.968;2023-07-09T00:45:42;16.80;1.00
34135;DHT22;20410;55.578;12.968;2023-07-09T00:48:13;16.90;1.00
34135;DHT22;20410;55.578;12.968;2023-07-09T00:50:49;16.90;1.00
34135;DHT22;20410;55.578;12.968;2023-07-09T00:53:26;17.00;1.00
34135;DHT22;20410;55.578;12.968;2023-07-09T00:56:00;17.00;1.00
34135;DHT22;20410;55.578;12.968;2023-07-09T00:58:27;17.10;1.00
34135;DHT22;20410;55.578;12.968;2023-07-09T01:00:56;17.10;1.00
34135;DHT22;20410;55.578;12.968;2023-07-09T01:06:10;17.20;1.00
34135;DHT22;20410;55.578;12.968;2023-07-09T01:08:38;17.20;1.00
34135;DHT22;20410;55.578;12.968;2023-07-09T01:11:15;17.10;1.00
34135;DHT22;20410;55.578;12.968;2023-07-09T01:13:41;17.00;1.00
34135;DHT22;20410;55.578;12.968;2023-07-09T01:16:10;16.90;1.00
34135;DHT22;20410;55.578;12.968;2023-07-09T01:18:36;16.90;1.00
34135;DHT22;20410;55.578;12.968;2023-07-09T01:21:07;17.00;1.00
34135;DHT22;20410;55.578;12.968;2023-07-09T01:23:33;17.00;1.00
34135;DHT22;20410;55.578;12.968;2023-07-09T01:25:58;17.00;1.00
34135;DHT22;20410;55.578;12.968;2023-07-09T01:28:24;17.00;1.00
34135;DHT22;20410;55.578;12.968;2023-07-09T01:30:50;16.90;1.00
34135;DHT22;20410;55.578;12.968;2023-07-09T01:33:20;16.90;1.00
34135;DHT22;20410;55.578;12.968;2023-07-09T01:35:46;17.00;1.00
34135;DHT22;20410;55.578;12.968;2023-07-09T01:38:13;17.10;1.00
34135;DHT22;20410;55.578;12.968;2023-07-09T01:40:38;17.10;1.00
34135;DHT22;20410;55.578;12.968;2023-07-09T01:43:04;17.10;1.00
34135;DHT22;20410;55.578;12.968;2023-07-09T01:45:33;17.00;1.00
34135;DHT22;20410;55.578;12.968;2023-07-09T01:47:59;16.90;1.00
34135;DHT22;20410;55.578;12.968;2023-07-09T01:50:25;16.80;1.00
34135;DHT22;20410;55.578;12.968;2023-07-09T01:52:52;16.70;1.00
34135;DHT22;20410;55.578;12.968;2023-07-09T01:55:19;16.60;1.00
34135;DHT22;20410;55.578;12.968;2023-07-09T01:57:45;16.50;1.00
34135;DHT22;20410;55.578;12.968;2023-07-09T02:00:13;16.60;1.00
34135;DHT22;20410;55.578;12.968;2023-07-09T02:02:44;16.60;1.00
34135;DHT22;20410;55.578;12.968;2023-07-09T02:05:20;16.50;1.00
34135;DHT22;20410;55.578;12.968;2023-07-09T02:07:46;16.50;1.00
34135;DHT22;20410;55.578;12.968;2023-07-09T02:10:13;16.50;1.00
34135;DHT22;20410;55.578;12.968;2023-07-09T02:12:39;16.50;1.00
34135;DHT22;20410;55.578;12.968;2023-07-09T02:15:05;16.60;1.00
34135;DHT22;20410;55.578;12.968;2023-07-09T02:17:31;16.60;1.00
34135;DHT22;20410;55.578;12.968;2023-07-09T02:19:57;16.60;1.00
34135;DHT22;20410;55.578;12.968;2023-07-09T02:22:22;16.50;1.00
34135;DHT22;20410;55.578;12.968;2023-07-09T02:24:48;16.50;1.00
34135;DHT22;20410;55.578;12.968;2023-07-09T02:27:16;16.50;1.00
34135;DHT22;20410;55.578;12.968;2023-07-09T02:29:42;16.50;1.00
34135;DHT22;20410;55.578;12.968;2023-07-09T02:32:08;16.50;1.00
34135;DHT22;20410;55.578;12.968;2023-07-09T02:34:34;16.50;1.00
34135;DHT22;20410;55.578;12.968;2023-07-09T02:37:00;16.50;1.00
34135;DHT22;20410;55.578;12.968;2023-07-09T02:39:26;16.50;1.00
34135;DHT22;20410;55.578;12.968;2023-07-09T02:41:52;16.50;1.00
34135;DHT22;20410;55.578;12.968;2023-07-09T02:44:18;16.50;1.00
34135;DHT22;20410;55.578;12.968;2023-07-09T02:46:44;16.60;1.00
34135;DHT22;20410;55.578;12.968;2023-07-09T02:49:11;16.60;1.00
34135;DHT22;20410;55.578;12.968;2023-07-09T02:51:38;16.60;1.00
34135;DHT22;20410;55.578;12.968;2023-07-09T02:54:04;16.60;1.00
34135;DHT22;20410;55.578;12.968;2023-07-09T02:56:30;16.60;1.00
34135;DHT22;20410;55.578;12.968;2023-07-09T02:58:56;16.60;1.00
34135;DHT22;20410;55.578;12.968;2023-07-09T03:01:22;16.60;1.00
34135;DHT22;20410;55.578;12.968;2023-07-09T03:03:54;16.60;1.00
34135;DHT22;20410;55.578;12.968;2023-07-09T03:06:21;16.60;1.00
34135;DHT22;20410;55.578;12.968;2023-07-09T03:08:47;16.70;1.00
34135;DHT22;20410;55.578;12.968;2023-07-09T03:11:14;16.80;1.00
34135;DHT22;20410;55.578;12.968;2023-07-09T03:13:40;16.80;1.00
34135;DHT22;20410;55.578;12.968;2023-07-09T03:16:05;16.80;1.00
34135;DHT22;20410;55.578;12.968;2023-07-09T03:18:32;16.80;1.00
34135;DHT22;20410;55.578;12.968;2023-07-09T03:20:58;16.80;1.00
34135;DHT22;20410;55.578;12.968;2023-07-09T03:23:23;16.70;1.00
34135;DHT22;20410;55.578;12.968;2023-07-09T03:25:49;16.70;1.00
34135;DHT22;20410;55.578;12.968;2023-07-09T03:28:15;16.60;1.00
34135;DHT22;20410;55.578;12.968;2023-07-09T03:30:42;16.60;1.00
34135;DHT22;20410;55.578;12.968;2023-07-09T03:33:09;16.60;1.00
34135;DHT22;20410;55.578;12.968;2023-07-09T03:35:34;16.60;1.00
34135;DHT22;20410;55.578;12.968;2023-07-09T03:38:00;16.60;1.00
34135;DHT22;20410;55.578;12.968;2023-07-09T03:40:26;16.60;1.00
34135;DHT22;20410;55.578;12.968;2023-07-09T03:42:51;16.70;1.00
34135;DHT22;20410;55.578;12.968;2023-07-09T03:45:17;16.80;1.00
34135;DHT22;20410;55.578;12.968;2023-07-09T03:47:43;16.90;1.00
34135;DHT22;20410;55.578;12.968;2023-07-09T03:50:09;17.10;1.00
34135;DHT22;20410;55.578;12.968;2023-07-09T03:52:35;17.20;1.00
34135;DHT22;20410;55.578;12.968;2023-07-09T03:55:01;17.30;1.00
34135;DHT22;20410;55.578;12.968;2023-07-09T03:57:33;17.50;1.00
34135;DHT22;20410;55.578;12.968;2023-07-09T03:59:59;17.70;1.00
34135;DHT22;20410;55.578;12.968;2023-07-09T04:02:24;17.80;1.00
34135;DHT22;20410;55.578;12.968;2023-07-09T04:04:50;18.00;1.00
34135;DHT22;20410;55.578;12.968;2023-07-09T04:07:16;18.10;1.00
34135;DHT22;20410;55.578;12.968;2023-07-09T04:09:42;18.20;1.00
34135;DHT22;20410;55.578;12.968;2023-07-09T04:12:08;18.30;1.00
34135;DHT22;20410;55.578;12.968;2023-07-09T04:14:34;18.50;1.00
34135;DHT22;20410;55.578;12.968;2023-07-09T04:17:00;18.50;1.00
34135;DHT22;20410;55.578;12.968;2023-07-09T04:19:26;18.70;1.00
34135;DHT22;20410;55.578;12.968;2023-07-09T04:21:51;18.70;1.00
34135;DHT22;20410;55.578;12.968;2023-07-09T04:24:18;18.80;1.00
34135;DHT22;20410;55.578;12.968;2023-07-09T04:26:45;19.00;1.00
34135;DHT22;20410;55.578;12.968;2023-07-09T04:29:11;19.00;1.00
34135;DHT22;20410;55.578;12.968;2023-07-09T04:31:37;19.10;1.00
34135;DHT22;20410;55.578;12.968;2023-07-09T04:34:03;19.20;1.00
34135;DHT22;20410;55.578;12.968;2023-07-09T04:36:29;19.30;1.00
34135;DHT22;20410;55.578;12.968;2023-07-09T04:38:55;19.30;1.00
34135;DHT22;20410;55.578;12.968;2023-07-09T04:41:21;19.40;1.00
34135;DHT22;20410;55.578;12.968;2023-07-09T04:43:46;19.40;1.00
34135;DHT22;20410;55.578;12.968;2023-07-09T04:46:12;19.50;1.00
34135;DHT22;20410;55.578;12.968;2023-07-09T04:48:37;19.60;1.00
34135;DHT22;20410;55.578;12.968;2023-07-09T04:51:04;19.70;1.00
34135;DHT22;20410;55.578;12.968;2023-07-09T04:53:29;19.80;1.00
34135;DHT22;20410;55.578;12.968;2023-07-09T04:55:55;19.90;1.00
34135;DHT22;20410;55.578;12.968;2023-07-09T04:58:21;20.00;1.00
34135;DHT22;20410;55.578;12.968;2023-07-09T05:00:46;20.00;1.00
34135;DHT22;20410;55.578;12.968;2023-07-09T05:03:13;20.00;1.00
34135;DHT22;20410;55.578;12.968;2023-07-09T05:05:45;20.00;1.00
34135;DHT22;20410;55.578;12.968;2023-07-09T05:08:12;20.00;1.00
34135;DHT22;20410;55.578;12.968;2023-07-09T05:10:50;20.10;1.00
34135;DHT22;20410;55.578;12.968;2023-07-09T05:13:16;20.20;1.00
34135;DHT22;20410;55.578;12.968;2023-07-09T05:15:44;20.10;1.00
34135;DHT22;20410;55.578;12.968;2023-07-09T05:18:10;20.20;1.00
34135;DHT22;20410;55.578;12.968;2023-07-09T05:20:36;20.20;1.00
34135;DHT22;20410;55.578;12.968;2023-07-09T05:23:01;20.30;1.00
34135;DHT22;20410;55.578;12.968;2023-07-09T05:25:27;20.40;1.00
34135;DHT22;20410;55.578;12.968;2023-07-09T05:27:53;20.50;1.00
34135;DHT22;20410;55.578;12.968;2023-07-09T05:30:19;20.50;1.00
34135;DHT22;20410;55.578;12.968;2023-07-09T05:32:45;20.60;1.00
34135;DHT22;20410;55.578;12.968;2023-07-09T05:35:11;20.70;1.00
34135;DHT22;20410;55.578;12.968;2023-07-09T05:37:37;20.80;1.00
34135;DHT22;20410;55.578;12.968;2023-07-09T05:40:04;20.70;1.00
34135;DHT22;20410;55.578;12.968;2023-07-09T05:42:31;20.70;1.00
34135;DHT22;20410;55.578;12.968;2023-07-09T05:44:57;20.80;1.00
34135;DHT22;20410;55.578;12.968;2023-07-09T05:47:22;20.80;1.00
34135;DHT22;20410;55.578;12.968;2023-07-09T05:49:48;20.80;1.00
34135;DHT22;20410;55.578;12.968;2023-07-09T05:52:21;20.90;1.00
34135;DHT22;20410;55.578;12.968;2023-07-09T05:54:49;20.80;1.00
34135;DHT22;20410;55.578;12.968;2023-07-09T05:57:15;20.90;1.00
34135;DHT22;20410;55.578;12.968;2023-07-09T05:59:40;20.90;1.00
34135;DHT22;20410;55.578;12.968;2023-07-09T06:02:13;21.00;1.00
34135;DHT22;20410;55.578;12.968;2023-07-09T06:04:39;21.10;99.90
34135;DHT22;20410;55.578;12.968;2023-07-09T06:07:05;21.10;99.90
34135;DHT22;20410;55.578;12.968;2023-07-09T06:09:31;21.20;1.00
34135;DHT22;20410;55.578;12.968;2023-07-09T06:11:58;21.30;1.00
34135;DHT22;20410;55.578;12.968;2023-07-09T06:14:24;21.30;1.00
34135;DHT22;20410;55.578;12.968;2023-07-09T06:16:50;21.40;1.00
34135;DHT22;20410;55.578;12.968;2023-07-09T06:19:15;21.40;1.00
34135;DHT22;20410;55.578;12.968;2023-07-09T06:21:41;21.40;1.00
34135;DHT22;20410;55.578;12.968;2023-07-09T06:24:09;21.40;99.90
34135;DHT22;20410;55.578;12.968;2023-07-09T06:26:35;21.30;99.90
34135;DHT22;20410;55.578;12.968;2023-07-09T06:29:01;21.40;99.90
34135;DHT22;20410;55.578;12.968;2023-07-09T06:31:26;21.40;99.90
34135;DHT22;20410;55.578;12.968;2023-07-09T06:33:52;21.40;99.90
34135;DHT22;20410;55.578;12.968;2023-07-09T06:36:19;21.40;99.90
34135;DHT22;20410;55.578;12.968;2023-07-09T06:38:45;21.40;99.90
34135;DHT22;20410;55.578;12.968;2023-07-09T06:41:11;21.40;99.90
34135;DHT22;20410;55.578;12.968;2023-07-09T06:43:37;21.40;99.90
34135;DHT22;20410;55.578;12.968;2023-07-09T06:46:07;21.50;99.90
34135;DHT22;20410;55.578;12.968;2023-07-09T06:48:33;21.60;99.90
34135;DHT22;20410;55.578;12.968;2023-07-09T06:50:59;21.70;99.90
34135;DHT22;20410;55.578;12.968;2023-07-09T06:53:26;21.80;99.90
34135;DHT22;20410;55.578;12.968;2023-07-09T06:55:52;21.70;99.90
34135;DHT22;20410;55.578;12.968;2023-07-09T06:58:21;21.80;99.90
34135;DHT22;20410;55.578;12.968;2023-07-09T07:00:49;21.90;99.90
34135;DHT22;20410;55.578;12.968;2023-07-09T07:03:15;22.00;99.90
34135;DHT22;20410;55.578;12.968;2023-07-09T07:05:45;22.10;99.90
34135;DHT22;20410;55.578;12.968;2023-07-09T07:08:12;22.20;99.90
34135;DHT22;20410;55.578;12.968;2023-07-09T07:10:38;22.20;99.90
34135;DHT22;20410;55.578;12.968;2023-07-09T07:13:04;22.20;99.90
34135;DHT22;20410;55.578;12.968;2023-07-09T07:15:29;22.30;99.90
34135;DHT22;20410;55.578;12.968;2023-07-09T07:17:55;22.30;99.90
34135;DHT22;20410;55.578;12.968;2023-07-09T07:20:20;22.30;99.90
34135;DHT22;20410;55.578;12.968;2023-07-09T07:22:46;22.20;99.90
34135;DHT22;20410;55.578;12.968;2023-07-09T07:25:12;22.20;99.90
34135;DHT22;20410;55.578;12.968;2023-07-09T07:27:38;22.20;99.90
34135;DHT22;20410;55.578;12.968;2023-07-09T07:30:05;22.20;99.90
34135;DHT22;20410;55.578;12.968;2023-07-09T07:32:35;22.30;99.90
34135;DHT22;20410;55.578;12.968;2023-07-09T07:35:00;22.50;99.90
34135;DHT22;20410;55.578;12.968;2023-07-09T07:37:26;22.60;99.90
34135;DHT22;20410;55.578;12.968;2023-07-09T07:39:52;22.70;99.90
34135;DHT22;20410;55.578;12.968;2023-07-09T07:42:17;22.80;99.90
34135;DHT22;20410;55.578;12.968;2023-07-09T07:44:43;22.90;99.90
34135;DHT22;20410;55.578;12.968;2023-07-09T07:47:09;22.90;99.90
34135;DHT22;20410;55.578;12.968;2023-07-09T07:49:34;23.00;99.90
34135;DHT22;20410;55.578;12.968;2023-07-09T07:52:00;23.00;99.90
34135;DHT22;20410;55.578;12.968;2023-07-09T07:54:29;23.00;99.90
34135;DHT22;20410;55.578;12.968;2023-07-09T07:56:54;23.00;99.90
34135;DHT22;20410;55.578;12.968;2023-07-09T07:59:20;23.10;99.90
34135;DHT22;20410;55.578;12.968;2023-07-09T08:01:45;23.10;99.90
34135;DHT22;20410;55.578;12.968;2023-07-09T08:04:11;23.00;99.90
34135;DHT22;20410;55.578;12.968;2023-07-09T08:06:37;22.80;99.90
34135;DHT22;20410;55.578;12.968;2023-07-09T08:09:02;22.90;99.90
34135;DHT22;20410;55.578;12.968;2023-07-09T08:11:28;22.80;99.90
34135;DHT22;20410;55.578;12.968;2023-07-09T08:13:55;22.90;99.90
34135;DHT22;20410;55.578;12.968;2023-07-09T08:16:21;23.00;99.90
34135;DHT22;20410;55.578;12.968;2023-07-09T08:18:46;23.00;99.90
34135;DHT22;20410;55.578;12.968;2023-07-09T08:21:12;23.10;99.90
34135;DHT22;20410;55.578;12.968;2023-07-09T08:23:37;23.00;99.90
34135;DHT22;20410;55.578;12.968;2023-07-09T08:26:04;23.10;99.90
34135;DHT22;20410;55.578;12.968;2023-07-09T08:28:30;23.30;99.90
34135;DHT22;20410;55.578;12.968;2023-07-09T08:30:56;23.30;99.90
34135;DHT22;20410;55.578;12.968;2023-07-09T08:33:23;23.40;99.90
34135;DHT22;20410;55.578;12.968;2023-07-09T08:35:50;23.50;99.90
34135;DHT22;20410;55.578;12.968;2023-07-09T08:38:16;23.40;99.90
34135;DHT22;20410;55.578;12.968;2023-07-09T08:40:43;23.30;99.90
34135;DHT22;20410;55.578;12.968;2023-07-09T08:43:32;23.30;93.70
34135;DHT22;20410;55.578;12.968;2023-07-09T08:48:34;23.30;99.90
34135;DHT22;20410;55.578;12.968;2023-07-09T08:51:46;23.30;99.90
34135;DHT22;20410;55.578;12.968;2023-07-09T08:54:00;23.30;77.70
34135;DHT22;20410;55.578;12.968;2023-07-09T08:56:28;23.60;45.50
34135;DHT22;20410;55.578;12.968;2023-07-09T08:58:56;23.70;58.30
34135;DHT22;20410;55.578;12.968;2023-07-09T09:01:39;23.70;28.70
34135;DHT22;20410;55.578;12.968;2023-07-09T09:04:19;23.70;95.90
34135;DHT22;20410;55.578;12.968;2023-07-09T09:06:50;23.80;9.00
34135;DHT22;20410;55.578;12.968;2023-07-09T09:09:39;23.90;1.00
34135;DHT22;20410;55.578;12.968;2023-07-09T09:12:25;23.80;1.00
34135;DHT22;20410;55.578;12.968;2023-07-09T09:15:09;23.70;1.00
34135;DHT22;20410;55.578;12.968;2023-07-09T09:17:38;23.80;6.00
34135;DHT22;20410;55.578;12.968;2023-07-09T09:20:18;23.80;1.00
34135;DHT22;20410;55.578;12.968;2023-07-09T09:25:37;24.00;1.00
34135;DHT22;20410;55.578;12.968;2023-07-09T09:28:04;24.00;1.00
34135;DHT22;20410;55.578;12.968;2023-07-09T09:30:31;24.20;1.00
34135;DHT22;20410;55.578;12.968;2023-07-09T09:33:02;24.40;1.00
34135;DHT22;20410;55.578;12.968;2023-07-09T09:35:42;24.60;1.00
34135;DHT22;20410;55.578;12.968;2023-07-09T09:38:19;24.60;1.00
34135;DHT22;20410;55.578;12.968;2023-07-09T09:40:45;24.60;1.00
34135;DHT22;20410;55.578;12.968;2023-07-09T09:43:14;24.60;1.00
34135;DHT22;20410;55.578;12.968;2023-07-09T09:45:40;24.70;1.00
34135;DHT22;20410;55.578;12.968;2023-07-09T09:48:16;24.60;1.00
34135;DHT22;20410;55.578;12.968;2023-07-09T09:50:44;24.70;99.90
34135;DHT22;20410;55.578;12.968;2023-07-09T09:53:18;24.70;99.90
34135;DHT22;20410;55.578;12.968;2023-07-09T09:55:45;24.80;99.90
34135;DHT22;20410;55.578;12.968;2023-07-09T09:58:14;24.80;99.90
34135;DHT22;20410;55.578;12.968;2023-07-09T10:00:40;25.00;99.90
34135;DHT22;20410;55.578;12.968;2023-07-09T10:03:05;25.00;99.90
34135;DHT22;20410;55.578;12.968;2023-07-09T10:05:59;25.00;99.90
34135;DHT22;20410;55.578;12.968;2023-07-09T10:09:05;25.10;1.00
34135;DHT22;20410;55.578;12.968;2023-07-09T10:11:43;25.30;99.90
34135;DHT22;20410;55.578;12.968;2023-07-09T10:14:34;25.50;99.90
34135;DHT22;20410;55.578;12.968;2023-07-09T10:17:22;25.70;99.90
34135;DHT22;20410;55.578;12.968;2023-07-09T10:19:56;25.60;99.90
34135;DHT22;20410;55.578;12.968;2023-07-09T10:25:06;25.50;1.00
34135;DHT22;20410;55.578;12.968;2023-07-09T10:27:52;25.40;1.00
34135;DHT22;20410;55.578;12.968;2023-07-09T10:33:09;25.50;99.90
34135;DHT22;20410;55.578;12.968;2023-07-09T10:41:04;25.60;99.90
34135;DHT22;20410;55.578;12.968;2023-07-09T10:46:06;25.70;1.00
34135;DHT22;20410;55.578;12.968;2023-07-09T10:48:41;25.70;99.90
34135;DHT22;20410;55.578;12.968;2023-07-09T10:51:28;25.70;99.90
34135;DHT22;20410;55.578;12.968;2023-07-09T10:53:58;25.80;99.90
34135;DHT22;20410;55.578;12.968;2023-07-09T10:56:32;25.90;99.90
34135;DHT22;20410;55.578;12.968;2023-07-09T11:01:51;26.00;99.90
34135;DHT22;20410;55.578;12.968;2023-07-09T11:04:35;26.10;99.90
34135;DHT22;20410;55.578;12.968;2023-07-09T11:07:06;26.10;1.00
34135;DHT22;20410;55.578;12.968;2023-07-09T11:09:39;25.90;1.00
34135;DHT22;20410;55.578;12.968;2023-07-09T11:12:17;26.10;99.90
34135;DHT22;20410;55.578;12.968;2023-07-09T11:14:55;26.20;99.90
34135;DHT22;20410;55.578;12.968;2023-07-09T11:17:22;26.20;94.40
34135;DHT22;20410;55.578;12.968;2023-07-09T11:19:54;26.10;99.90
34135;DHT22;20410;55.578;12.968;2023-07-09T11:22:36;26.10;99.90
34135;DHT22;20410;55.578;12.968;2023-07-09T11:25:14;26.20;99.90
34135;DHT22;20410;55.578;12.968;2023-07-09T11:27:51;26.30;1.00
34135;DHT22;20410;55.578;12.968;2023-07-09T11:30:25;26.40;1.00
34135;DHT22;20410;55.578;12.968;2023-07-09T11:33:01;26.80;99.90
34135;DHT22;20410;55.578;12.968;2023-07-09T11:35:29;26.70;99.90
34135;DHT22;20410;55.578;12.968;2023-07-09T11:37:55;26.70;99.90
34135;DHT22;20410;55.578;12.968;2023-07-09T11:40:24;26.80;99.90
34135;DHT22;20410;55.578;12.968;2023-07-09T11:42:56;27.00;99.90
34135;DHT22;20410;55.578;12.968;2023-07-09T11:45:31;27.00;1.00
34135;DHT22;20410;55.578;12.968;2023-07-09T11:50:40;26.80;90.90
34135;DHT22;20410;55.578;12.968;2023-07-09T11:53:26;26.80;99.90
34135;DHT22;20410;55.578;12.968;2023-07-09T11:55:54;26.90;99.90
34135;DHT22;20410;55.578;12.968;2023-07-09T11:58:20;26.80;1.00
34135;DHT22;20410;55.578;12.968;2023-07-09T12:00:50;26.80;1.00
34135;DHT22;20410;55.578;12.968;2023-07-09T12:03:29;27.00;1.00
34135;DHT22;20410;55.578;12.968;2023-07-09T12:06:02;27.00;99.90
34135;DHT22;20410;55.578;12.968;2023-07-09T12:08:38;27.10;1.00
34135;DHT22;20410;55.578;12.968;2023-07-09T12:11:05;27.30;99.90
34135;DHT22;20410;55.578;12.968;2023-07-09T12:13:38;27.40;1.00
34135;DHT22;20410;55.578;12.968;2023-07-09T12:16:03;27.70;99.90
34135;DHT22;20410;55.578;12.968;2023-07-09T12:18:29;27.80;99.90
34135;DHT22;20410;55.578;12.968;2023-07-09T12:20:55;27.80;99.90
34135;DHT22;20410;55.578;12.968;2023-07-09T12:23:32;28.00;90.00
34135;DHT22;20410;55.578;12.968;2023-07-09T12:26:02;28.20;1.00
34135;DHT22;20410;55.578;12.968;2023-07-09T12:28:29;28.10;1.00
34135;DHT22;20410;55.578;12.968;2023-07-09T12:30:56;28.00;1.00
34135;DHT22;20410;55.578;12.968;2023-07-09T12:33:23;28.00;1.00
34135;DHT22;20410;55.578;12.968;2023-07-09T12:36:01;27.90;1.00
34135;DHT22;20410;55.578;12.968;2023-07-09T12:38:44;27.90;1.00
34135;DHT22;20410;55.578;12.968;2023-07-09T12:41:25;28.20;1.00
34135;DHT22;20410;55.578;12.968;2023-07-09T12:43:53;28.00;1.00
34135;DHT22;20410;55.578;12.968;2023-07-09T12:46:20;28.00;1.00
34135;DHT22;20410;55.578;12.968;2023-07-09T12:48:46;28.50;1.00
34135;DHT22;20410;55.578;12.968;2023-07-09T12:51:20;28.70;1.00
34135;DHT22;20410;55.578;12.968;2023-07-09T12:53:46;28.70;1.00
34135;DHT22;20410;55.578;12.968;2023-07-09T12:56:13;29.00;1.00
34135;DHT22;20410;55.578;12.968;2023-07-09T12:58:40;29.20;99.90
34135;DHT22;20410;55.578;12.968;2023-07-09T13:01:08;29.30;99.90
34135;DHT22;20410;55.578;12.968;2023-07-09T13:03:38;29.30;99.90
34135;DHT22;20410;55.578;12.968;2023-07-09T13:06:06;29.30;99.90
34135;DHT22;20410;55.578;12.968;2023-07-09T13:08:40;29.60;99.90
34135;DHT22;20410;55.578;12.968;2023-07-09T13:11:15;29.50;1.00
34135;DHT22;20410;55.578;12.968;2023-07-09T13:13:41;29.20;1.00
34135;DHT22;20410;55.578;12.968;2023-07-09T13:16:06;29.10;1.00
34135;DHT22;20410;55.578;12.968;2023-07-09T13:18:32;29.00;1.00
34135;DHT22;20410;55.578;12.968;2023-07-09T13:20:58;29.00;1.00
34135;DHT22;20410;55.578;12.968;2023-07-09T13:23:28;28.80;1.00
34135;DHT22;20410;55.578;12.968;2023-07-09T13:25:56;28.60;99.90
34135;DHT22;20410;55.578;12.968;2023-07-09T13:28:27;28.80;1.00
34135;DHT22;20410;55.578;12.968;2023-07-09T13:31:17;28.60;1.00
34135;DHT22;20410;55.578;12.968;2023-07-09T13:33:42;28.70;2.40
34135;DHT22;20410;55.578;12.968;2023-07-09T13:36:08;28.50;99.90
34135;DHT22;20410;55.578;12.968;2023-07-09T13:38:35;28.60;99.90
34135;DHT22;20410;55.578;12.968;2023-07-09T13:41:10;28.40;1.00
34135;DHT22;20410;55.578;12.968;2023-07-09T13:43:36;28.20;1.00
34135;DHT22;20410;55.578;12.968;2023-07-09T13:46:07;28.00;1.00
34135;DHT22;20410;55.578;12.968;2023-07-09T13:48:36;28.00;99.90
34135;DHT22;20410;55.578;12.968;2023-07-09T13:51:20;28.00;99.90
34135;DHT22;20410;55.578;12.968;2023-07-09T13:53:47;28.10;99.90
34135;DHT22;20410;55.578;12.968;2023-07-09T13:56:13;27.80;1.00
34135;DHT22;20410;55.578;12.968;2023-07-09T13:58:40;28.00;1.00
34135;DHT22;20410;55.578;12.968;2023-07-09T14:01:12;28.20;1.00
34135;DHT22;20410;55.578;12.968;2023-07-09T14:03:38;28.20;99.90
34135;DHT22;20410;55.578;12.968;2023-07-09T14:06:04;28.40;99.90
34135;DHT22;20410;55.578;12.968;2023-07-09T14:08:30;28.40;99.90
34135;DHT22;20410;55.578;12.968;2023-07-09T14:10:55;28.50;1.00
34135;DHT22;20410;55.578;12.968;2023-07-09T14:13:24;29.00;99.90
34135;DHT22;20410;55.578;12.968;2023-07-09T14:15:50;29.30;1.00
34135;DHT22;20410;55.578;12.968;2023-07-09T14:18:22;29.30;1.00
34135;DHT22;20410;55.578;12.968;2023-07-09T14:20:49;28.90;99.90
34135;DHT22;20410;55.578;12.968;2023-07-09T14:23:19;29.00;99.90
34135;DHT22;20410;55.578;12.968;2023-07-09T14:25:45;29.00;99.90
34135;DHT22;20410;55.578;12.968;2023-07-09T14:28:21;29.10;99.90
34135;DHT22;20410;55.578;12.968;2023-07-09T14:30:49;29.00;38.10
34135;DHT22;20410;55.578;12.968;2023-07-09T14:33:18;28.90;99.90
34135;DHT22;20410;55.578;12.968;2023-07-09T14:35:45;28.80;99.90
34135;DHT22;20410;55.578;12.968;2023-07-09T14:38:24;29.00;99.90
34135;DHT22;20410;55.578;12.968;2023-07-09T14:40:52;29.00;99.90
34135;DHT22;20410;55.578;12.968;2023-07-09T14:43:19;29.20;99.90
34135;DHT22;20410;55.578;12.968;2023-07-09T14:45:45;29.10;99.90
34135;DHT22;20410;55.578;12.968;2023-07-09T14:48:14;28.70;99.90
34135;DHT22;20410;55.578;12.968;2023-07-09T14:50:40;28.60;99.90
34135;DHT22;20410;55.578;12.968;2023-07-09T14:53:30;28.50;99.90
34135;DHT22;20410;55.578;12.968;2023-07-09T14:55:56;28.30;99.90
34135;DHT22;20410;55.578;12.968;2023-07-09T14:58:23;28.30;1.00
34135;DHT22;20410;55.578;12.968;2023-07-09T15:00:49;28.20;1.00
34135;DHT22;20410;55.578;12.968;2023-07-09T15:03:23;28.30;1.00
34135;DHT22;20410;55.578;12.968;2023-07-09T15:05:49;28.30;1.00
34135;DHT22;20410;55.578;12.968;2023-07-09T15:08:18;28.40;1.00
34135;DHT22;20410;55.578;12.968;2023-07-09T15:10:46;28.30;1.00
34135;DHT22;20410;55.578;12.968;2023-07-09T15:13:39;28.30;1.00
34135;DHT22;20410;55.578;12.968;2023-07-09T15:16:05;28.30;1.00
34135;DHT22;20410;55.578;12.968;2023-07-09T15:18:31;28.20;1.00
34135;DHT22;20410;55.578;12.968;2023-07-09T15:21:01;28.20;1.00
34135;DHT22;20410;55.578;12.968;2023-07-09T15:23:28;28.30;1.00
34135;DHT22;20410;55.578;12.968;2023-07-09T15:25:54;28.30;1.00
34135;DHT22;20410;55.578;12.968;2023-07-09T15:28:21;28.50;99.90
34135;DHT22;20410;55.578;12.968;2023-07-09T15:30:46;28.60;99.90
34135;DHT22;20410;55.578;12.968;2023-07-09T15:33:17;28.50;99.90
34135;DHT22;20410;55.578;12.968;2023-07-09T15:35:45;28.60;99.90
34135;DHT22;20410;55.578;12.968;2023-07-09T15:38:31;28.70;1.00
34135;DHT22;20410;55.578;12.968;2023-07-09T15:40:57;28.90;99.90
34135;DHT22;20410;55.578;12.968;2023-07-09T15:43:24;29.00;1.00
34135;DHT22;20410;55.578;12.968;2023-07-09T15:45:51;29.20;1.00
34135;DHT22;20410;55.578;12.968;2023-07-09T15:48:27;29.20;99.90
34135;DHT22;20410;55.578;12.968;2023-07-09T15:50:53;29.30;1.00
34135;DHT22;20410;55.578;12.968;2023-07-09T15:53:20;29.50;1.00
34135;DHT22;20410;55.578;12.968;2023-07-09T15:55:47;29.60;1.00
34135;DHT22;20410;55.578;12.968;2023-07-09T15:58:23;29.50;1.00
34135;DHT22;20410;55.578;12.968;2023-07-09T16:00:49;29.50;1.00
34135;DHT22;20410;55.578;12.968;2023-07-09T16:03:15;29.50;1.00